Ana Sayfa
METAR-TAF:

METAR-TAF

Havaalanları :

Cidde, Suudi Arabistan

Enlem: 21-42N, Boylam: 039-11E, yükseklik: 15 m

Güncel hava durumu gözlemi

Rapor saat 20:00 UTC de 28 dakika önce yapıldı.
Rüzgar kuzeydan 6 kt
Sıcaklık 26°C
Nem 48%
Basınç 1014 hPa
Görüş mesafesi 10 km veya daha fazla
4000 ft yükseklikte parçalı bulutlu

METAR: OEJN 132000Z 36006KT 9999 SCT040 26/14 Q1014 NOSIG

Saat: 23:28 (20:28 UTC)

Tahmin

Rapor saat 17:00 UTC de 3 saat ve 28 dakika önce yapıldı.
Ayın 13'si saat 18 UTC'den ayın 14'si saat 24 UTC'ye kadar geçerli Tahmin
Rüzgar kuzey/kuzeydoğudan 10 kt
Görüş mesafesi 10 km veya daha fazla
4000 ft yükseklikte parçalı bulutlu
Dönüşüyor
ayın 14'si saat 04 UTC'den ayın 14'si saat 06 UTC'ye kadar
Rüzgar kuzey/kuzeybatıdan 18 kt

TAF: OEJN 131700Z 1318/1424 03010KT 9999 SCT040 BECMG 1404/1406 33018KT

4.000'den fazla havaalanı için hava durumu gözlemleri ve tahminleri (METAR ve TAF raporları).

Kullanılabilir istasyonlar harita üzerinde sarı ve kırmızı noktalarla gösterilir.

İstasyonun adını görmek için fareyi noktanın üzerinde gezdirin.

Sonrasında hava gözlem ve tahminlerini görmek için tıklayın.

Haritayı değiştirmek için: yaklaştırmak için siyah artı işaretli yeşil düğmeye ve uzaklaştırmak için de eksi işaretli düğmeye hızla tıklayın; bitişik haritalar için yeşil okları kullanın.


METAR-TAF: